sensor_id;sensor_type;location;lat;lon;timestamp;temperature;humidity
43009;DHT22;28634;45.454;11.106;2022-08-11T00:01:14;31.30;35.20
43009;DHT22;28634;45.454;11.106;2022-08-11T00:03:43;31.30;34.90
43009;DHT22;28634;45.454;11.106;2022-08-11T00:06:12;31.40;34.40
43009;DHT22;28634;45.454;11.106;2022-08-11T00:08:41;31.20;34.80
43009;DHT22;28634;45.454;11.106;2022-08-11T00:11:09;31.20;34.60
43009;DHT22;28634;45.454;11.106;2022-08-11T00:13:41;31.20;34.60
43009;DHT22;28634;45.454;11.106;2022-08-11T00:16:20;31.20;35.20
43009;DHT22;28634;45.454;11.106;2022-08-11T00:18:53;31.20;34.80
43009;DHT22;28634;45.454;11.106;2022-08-11T00:21:23;31.10;34.90
43009;DHT22;28634;45.454;11.106;2022-08-11T00:24:11;31.20;34.90
43009;DHT22;28634;45.454;11.106;2022-08-11T00:26:38;31.10;35.10
43009;DHT22;28634;45.454;11.106;2022-08-11T00:29:10;31.00;35.00
43009;DHT22;28634;45.454;11.106;2022-08-11T00:31:52;31.00;34.80
43009;DHT22;28634;45.454;11.106;2022-08-11T00:34:26;31.10;35.00
43009;DHT22;28634;45.454;11.106;2022-08-11T00:37:03;30.90;35.70
43009;DHT22;28634;45.454;11.106;2022-08-11T00:39:34;30.80;36.20
43009;DHT22;28634;45.454;11.106;2022-08-11T00:47:34;30.50;37.00
43009;DHT22;28634;45.454;11.106;2022-08-11T00:58:47;30.40;37.60
43009;DHT22;28634;45.454;11.106;2022-08-11T01:07:04;30.50;37.10
43009;DHT22;28634;45.454;11.106;2022-08-11T01:12:48;30.40;37.00
43009;DHT22;28634;45.454;11.106;2022-08-11T01:18:15;30.50;36.70
43009;DHT22;28634;45.454;11.106;2022-08-11T01:49:47;30.90;35.30
43009;DHT22;28634;45.454;11.106;2022-08-11T01:56:00;30.90;33.50
43009;DHT22;28634;45.454;11.106;2022-08-11T01:58:48;30.90;34.10
43009;DHT22;28634;45.454;11.106;2022-08-11T02:04:23;30.90;34.40
43009;DHT22;28634;45.454;11.106;2022-08-11T02:09:46;30.90;33.40
43009;DHT22;28634;45.454;11.106;2022-08-11T02:17:58;30.80;32.80
43009;DHT22;28634;45.454;11.106;2022-08-11T02:20:47;30.80;32.60
43009;DHT22;28634;45.454;11.106;2022-08-11T02:23:48;30.90;32.80
43009;DHT22;28634;45.454;11.106;2022-08-11T02:26:39;30.90;31.90
43009;DHT22;28634;45.454;11.106;2022-08-11T02:29:18;31.00;33.80
43009;DHT22;28634;45.454;11.106;2022-08-11T02:37:44;31.10;32.70
43009;DHT22;28634;45.454;11.106;2022-08-11T02:45:15;31.10;30.90
43009;DHT22;28634;45.454;11.106;2022-08-11T02:48:14;31.10;31.50
43009;DHT22;28634;45.454;11.106;2022-08-11T02:51:28;31.10;30.10
43009;DHT22;28634;45.454;11.106;2022-08-11T02:54:12;31.10;31.50
43009;DHT22;28634;45.454;11.106;2022-08-11T02:56:58;30.90;30.20
43009;DHT22;28634;45.454;11.106;2022-08-11T02:59:57;30.80;30.50
43009;DHT22;28634;45.454;11.106;2022-08-11T03:14:13;30.80;31.50
43009;DHT22;28634;45.454;11.106;2022-08-11T03:22:50;30.60;30.30
43009;DHT22;28634;45.454;11.106;2022-08-11T03:25:25;30.60;31.50
43009;DHT22;28634;45.454;11.106;2022-08-11T03:28:28;30.50;31.20
43009;DHT22;28634;45.454;11.106;2022-08-11T03:33:53;30.60;31.50
43009;DHT22;28634;45.454;11.106;2022-08-11T03:40:03;30.40;30.30
43009;DHT22;28634;45.454;11.106;2022-08-11T03:42:46;30.40;29.90
43009;DHT22;28634;45.454;11.106;2022-08-11T03:45:31;30.40;30.50
43009;DHT22;28634;45.454;11.106;2022-08-11T04:25:08;30.40;31.40
43009;DHT22;28634;45.454;11.106;2022-08-11T04:31:15;30.30;29.70
43009;DHT22;28634;45.454;11.106;2022-08-11T04:43:08;30.00;30.00
43009;DHT22;28634;45.454;11.106;2022-08-11T04:49:05;30.10;30.20
43009;DHT22;28634;45.454;11.106;2022-08-11T04:52:33;30.00;30.50
43009;DHT22;28634;45.454;11.106;2022-08-11T05:02:14;30.00;30.60
43009;DHT22;28634;45.454;11.106;2022-08-11T05:13:33;30.00;30.20
43009;DHT22;28634;45.454;11.106;2022-08-11T05:16:23;29.90;30.70
43009;DHT22;28634;45.454;11.106;2022-08-11T05:19:30;30.00;30.30
43009;DHT22;28634;45.454;11.106;2022-08-11T05:22:17;30.10;30.70
43009;DHT22;28634;45.454;11.106;2022-08-11T05:28:34;30.20;29.70
43009;DHT22;28634;45.454;11.106;2022-08-11T05:31:30;30.20;30.10
43009;DHT22;28634;45.454;11.106;2022-08-11T05:34:28;30.20;30.10
43009;DHT22;28634;45.454;11.106;2022-08-11T05:37:43;30.10;30.20
43009;DHT22;28634;45.454;11.106;2022-08-11T05:40:30;30.20;29.40
43009;DHT22;28634;45.454;11.106;2022-08-11T05:43:25;30.20;30.80
43009;DHT22;28634;45.454;11.106;2022-08-11T05:46:38;30.20;29.60
43009;DHT22;28634;45.454;11.106;2022-08-11T05:49:30;30.20;30.90
43009;DHT22;28634;45.454;11.106;2022-08-11T05:52:19;30.40;30.50
43009;DHT22;28634;45.454;11.106;2022-08-11T05:55:09;30.50;30.30
43009;DHT22;28634;45.454;11.106;2022-08-11T05:57:58;30.50;30.00
43009;DHT22;28634;45.454;11.106;2022-08-11T06:00:27;30.60;30.70
43009;DHT22;28634;45.454;11.106;2022-08-11T06:02:57;30.70;29.50
43009;DHT22;28634;45.454;11.106;2022-08-11T06:05:34;30.70;29.60
43009;DHT22;28634;45.454;11.106;2022-08-11T06:08:11;30.60;30.10
43009;DHT22;28634;45.454;11.106;2022-08-11T06:10:43;30.60;30.30
43009;DHT22;28634;45.454;11.106;2022-08-11T06:13:15;30.60;29.10
43009;DHT22;28634;45.454;11.106;2022-08-11T06:15:45;30.60;30.10
43009;DHT22;28634;45.454;11.106;2022-08-11T06:18:13;30.70;30.00
43009;DHT22;28634;45.454;11.106;2022-08-11T06:20:47;30.60;29.80
43009;DHT22;28634;45.454;11.106;2022-08-11T06:23:16;30.60;31.30
43009;DHT22;28634;45.454;11.106;2022-08-11T06:25:51;30.70;31.50
43009;DHT22;28634;45.454;11.106;2022-08-11T06:28:31;30.70;30.70
43009;DHT22;28634;45.454;11.106;2022-08-11T06:30:59;30.60;30.80
43009;DHT22;28634;45.454;11.106;2022-08-11T06:33:38;30.60;30.40
43009;DHT22;28634;45.454;11.106;2022-08-11T06:39:38;30.60;30.50
43009;DHT22;28634;45.454;11.106;2022-08-11T06:42:13;30.60;30.30
43009;DHT22;28634;45.454;11.106;2022-08-11T06:44:53;30.60;30.40
43009;DHT22;28634;45.454;11.106;2022-08-11T06:47:24;30.60;30.10
43009;DHT22;28634;45.454;11.106;2022-08-11T06:49:55;30.50;30.20
43009;DHT22;28634;45.454;11.106;2022-08-11T06:52:44;30.60;30.20
43009;DHT22;28634;45.454;11.106;2022-08-11T06:55:20;30.50;30.00
43009;DHT22;28634;45.454;11.106;2022-08-11T06:58:29;30.50;29.80
43009;DHT22;28634;45.454;11.106;2022-08-11T07:01:21;30.50;29.70
43009;DHT22;28634;45.454;11.106;2022-08-11T07:03:58;30.50;27.70
43009;DHT22;28634;45.454;11.106;2022-08-11T07:07:11;30.50;29.90
43009;DHT22;28634;45.454;11.106;2022-08-11T07:13:26;30.60;29.10
43009;DHT22;28634;45.454;11.106;2022-08-11T07:16:17;30.60;29.90
43009;DHT22;28634;45.454;11.106;2022-08-11T07:19:01;30.60;29.60
43009;DHT22;28634;45.454;11.106;2022-08-11T07:21:47;30.60;29.80
43009;DHT22;28634;45.454;11.106;2022-08-11T07:24:43;30.70;29.90
43009;DHT22;28634;45.454;11.106;2022-08-11T07:27:40;30.70;29.90
43009;DHT22;28634;45.454;11.106;2022-08-11T07:30:26;30.80;28.60
43009;DHT22;28634;45.454;11.106;2022-08-11T07:32:57;30.80;27.90
43009;DHT22;28634;45.454;11.106;2022-08-11T07:35:34;30.70;28.70
43009;DHT22;28634;45.454;11.106;2022-08-11T07:38:07;30.70;28.60
43009;DHT22;28634;45.454;11.106;2022-08-11T07:40:35;30.70;28.20
43009;DHT22;28634;45.454;11.106;2022-08-11T07:43:04;30.70;28.00
43009;DHT22;28634;45.454;11.106;2022-08-11T07:45:33;30.70;29.00
43009;DHT22;28634;45.454;11.106;2022-08-11T07:48:19;30.70;29.00
43009;DHT22;28634;45.454;11.106;2022-08-11T07:51:05;30.80;29.20
43009;DHT22;28634;45.454;11.106;2022-08-11T07:53:51;30.80;29.30
43009;DHT22;28634;45.454;11.106;2022-08-11T07:56:37;30.90;28.00
43009;DHT22;28634;45.454;11.106;2022-08-11T07:59:26;30.90;29.60
43009;DHT22;28634;45.454;11.106;2022-08-11T08:02:30;30.90;29.70
43009;DHT22;28634;45.454;11.106;2022-08-11T08:05:18;30.90;29.70
43009;DHT22;28634;45.454;11.106;2022-08-11T08:08:04;30.90;29.50
43009;DHT22;28634;45.454;11.106;2022-08-11T08:10:53;30.90;28.80
43009;DHT22;28634;45.454;11.106;2022-08-11T08:13:41;30.90;28.80
43009;DHT22;28634;45.454;11.106;2022-08-11T08:16:29;30.90;29.50
43009;DHT22;28634;45.454;11.106;2022-08-11T08:19:17;30.90;29.00
43009;DHT22;28634;45.454;11.106;2022-08-11T08:21:46;30.70;29.40
43009;DHT22;28634;45.454;11.106;2022-08-11T08:24:14;30.70;28.50
43009;DHT22;28634;45.454;11.106;2022-08-11T08:26:43;30.60;28.60
43009;DHT22;28634;45.454;11.106;2022-08-11T08:29:33;30.60;29.00
43009;DHT22;28634;45.454;11.106;2022-08-11T08:32:19;30.60;29.20
43009;DHT22;28634;45.454;11.106;2022-08-11T08:34:51;30.70;28.20
43009;DHT22;28634;45.454;11.106;2022-08-11T08:37:24;30.60;28.70
43009;DHT22;28634;45.454;11.106;2022-08-11T08:40:12;30.60;28.70
43009;DHT22;28634;45.454;11.106;2022-08-11T08:42:45;30.40;27.90
43009;DHT22;28634;45.454;11.106;2022-08-11T08:45:14;30.60;27.60
43009;DHT22;28634;45.454;11.106;2022-08-11T08:50:21;30.80;28.80
43009;DHT22;28634;45.454;11.106;2022-08-11T08:53:03;30.90;28.40
43009;DHT22;28634;45.454;11.106;2022-08-11T08:55:31;31.00;27.50
43009;DHT22;28634;45.454;11.106;2022-08-11T08:57:59;31.10;27.50
43009;DHT22;28634;45.454;11.106;2022-08-11T09:00:41;31.10;26.10
43009;DHT22;28634;45.454;11.106;2022-08-11T09:03:11;31.10;26.70
43009;DHT22;28634;45.454;11.106;2022-08-11T09:05:58;31.20;26.20
43009;DHT22;28634;45.454;11.106;2022-08-11T09:08:26;31.20;25.60
43009;DHT22;28634;45.454;11.106;2022-08-11T09:10:56;31.20;26.60
43009;DHT22;28634;45.454;11.106;2022-08-11T09:13:45;31.20;27.00
43009;DHT22;28634;45.454;11.106;2022-08-11T09:16:30;31.20;28.80
43009;DHT22;28634;45.454;11.106;2022-08-11T09:18:59;31.20;28.90
43009;DHT22;28634;45.454;11.106;2022-08-11T09:21:27;31.20;29.60
43009;DHT22;28634;45.454;11.106;2022-08-11T09:24:14;31.20;26.60
43009;DHT22;28634;45.454;11.106;2022-08-11T09:27:06;31.20;29.30
43009;DHT22;28634;45.454;11.106;2022-08-11T09:29:37;31.20;29.20
43009;DHT22;28634;45.454;11.106;2022-08-11T09:32:04;31.20;28.40
43009;DHT22;28634;45.454;11.106;2022-08-11T09:34:34;31.20;27.30
43009;DHT22;28634;45.454;11.106;2022-08-11T09:37:04;31.30;27.80
43009;DHT22;28634;45.454;11.106;2022-08-11T09:40:11;31.30;29.10
43009;DHT22;28634;45.454;11.106;2022-08-11T09:43:02;31.20;29.90
43009;DHT22;28634;45.454;11.106;2022-08-11T09:45:51;31.20;30.10
43009;DHT22;28634;45.454;11.106;2022-08-11T09:48:20;31.20;29.30
43009;DHT22;28634;45.454;11.106;2022-08-11T09:50:53;31.30;28.20
43009;DHT22;28634;45.454;11.106;2022-08-11T09:53:23;31.30;29.40
43009;DHT22;28634;45.454;11.106;2022-08-11T09:56:18;31.30;30.20
43009;DHT22;28634;45.454;11.106;2022-08-11T09:59:04;31.20;30.40
43009;DHT22;28634;45.454;11.106;2022-08-11T10:01:46;31.20;30.60
43009;DHT22;28634;45.454;11.106;2022-08-11T10:04:15;31.20;30.60
43009;DHT22;28634;45.454;11.106;2022-08-11T10:06:45;31.20;29.60
43009;DHT22;28634;45.454;11.106;2022-08-11T10:09:52;31.20;30.50
43009;DHT22;28634;45.454;11.106;2022-08-11T10:12:27;31.30;27.40
43009;DHT22;28634;45.454;11.106;2022-08-11T10:15:10;31.40;27.80
43009;DHT22;28634;45.454;11.106;2022-08-11T10:18:09;31.50;28.30
43009;DHT22;28634;45.454;11.106;2022-08-11T10:21:08;31.50;27.30
43009;DHT22;28634;45.454;11.106;2022-08-11T10:23:37;31.50;27.10
43009;DHT22;28634;45.454;11.106;2022-08-11T10:26:31;31.50;28.30
43009;DHT22;28634;45.454;11.106;2022-08-11T10:29:37;31.60;27.50
43009;DHT22;28634;45.454;11.106;2022-08-11T10:32:29;31.70;27.50
43009;DHT22;28634;45.454;11.106;2022-08-11T10:35:30;31.60;29.50
43009;DHT22;28634;45.454;11.106;2022-08-11T10:37:58;31.60;28.50
43009;DHT22;28634;45.454;11.106;2022-08-11T10:40:38;31.50;30.20
43009;DHT22;28634;45.454;11.106;2022-08-11T10:43:06;31.40;30.60
43009;DHT22;28634;45.454;11.106;2022-08-11T10:45:45;31.30;30.50
43009;DHT22;28634;45.454;11.106;2022-08-11T10:48:37;31.30;30.60
43009;DHT22;28634;45.454;11.106;2022-08-11T10:51:06;31.20;31.00
43009;DHT22;28634;45.454;11.106;2022-08-11T10:53:44;31.10;31.20
43009;DHT22;28634;45.454;11.106;2022-08-11T10:56:34;31.20;31.30
43009;DHT22;28634;45.454;11.106;2022-08-11T10:59:22;31.10;31.10
43009;DHT22;28634;45.454;11.106;2022-08-11T11:01:51;31.10;30.40
43009;DHT22;28634;45.454;11.106;2022-08-11T11:04:26;31.20;31.10
43009;DHT22;28634;45.454;11.106;2022-08-11T11:07:17;31.30;30.40
43009;DHT22;28634;45.454;11.106;2022-08-11T11:12:34;31.50;29.00
43009;DHT22;28634;45.454;11.106;2022-08-11T11:15:22;31.60;28.00
43009;DHT22;28634;45.454;11.106;2022-08-11T11:23:32;31.70;30.00
43009;DHT22;28634;45.454;11.106;2022-08-11T11:37:23;31.90;28.00
43009;DHT22;28634;45.454;11.106;2022-08-11T11:39:52;32.00;28.10
43009;DHT22;28634;45.454;11.106;2022-08-11T11:42:20;31.90;28.50
43009;DHT22;28634;45.454;11.106;2022-08-11T11:44:48;31.90;28.20
43009;DHT22;28634;45.454;11.106;2022-08-11T11:47:21;32.00;30.00
43009;DHT22;28634;45.454;11.106;2022-08-11T11:49:49;31.70;30.30
43009;DHT22;28634;45.454;11.106;2022-08-11T11:52:18;31.50;30.90
43009;DHT22;28634;45.454;11.106;2022-08-11T11:54:49;31.50;29.60
43009;DHT22;28634;45.454;11.106;2022-08-11T11:57:19;31.60;30.70
43009;DHT22;28634;45.454;11.106;2022-08-11T12:00:08;31.60;29.60
43009;DHT22;28634;45.454;11.106;2022-08-11T12:03:01;31.70;28.90
43009;DHT22;28634;45.454;11.106;2022-08-11T12:05:31;31.70;30.80
43009;DHT22;28634;45.454;11.106;2022-08-11T12:08:01;31.80;28.10
43009;DHT22;28634;45.454;11.106;2022-08-11T12:13:16;32.20;27.70
43009;DHT22;28634;45.454;11.106;2022-08-11T12:16:02;32.40;27.80
43009;DHT22;28634;45.454;11.106;2022-08-11T12:18:53;32.40;27.20
43009;DHT22;28634;45.454;11.106;2022-08-11T12:21:22;32.30;27.30
43009;DHT22;28634;45.454;11.106;2022-08-11T12:23:50;32.20;29.80
43009;DHT22;28634;45.454;11.106;2022-08-11T12:26:37;32.10;29.90
43009;DHT22;28634;45.454;11.106;2022-08-11T12:29:47;31.80;30.70
43009;DHT22;28634;45.454;11.106;2022-08-11T12:32:23;31.60;31.20
43009;DHT22;28634;45.454;11.106;2022-08-11T12:34:51;31.50;31.70
43009;DHT22;28634;45.454;11.106;2022-08-11T12:37:22;31.40;31.80
43009;DHT22;28634;45.454;11.106;2022-08-11T12:39:52;31.60;28.80
43009;DHT22;28634;45.454;11.106;2022-08-11T12:43:03;31.80;28.90
43009;DHT22;28634;45.454;11.106;2022-08-11T12:46:24;32.10;28.40
43009;DHT22;28634;45.454;11.106;2022-08-11T12:49:11;32.10;27.70
43009;DHT22;28634;45.454;11.106;2022-08-11T12:52:19;32.10;29.20
43009;DHT22;28634;45.454;11.106;2022-08-11T12:55:02;31.90;30.70
43009;DHT22;28634;45.454;11.106;2022-08-11T12:57:38;31.90;29.20
43009;DHT22;28634;45.454;11.106;2022-08-11T13:00:29;32.10;28.30
43009;DHT22;28634;45.454;11.106;2022-08-11T13:03:18;32.20;27.80
43009;DHT22;28634;45.454;11.106;2022-08-11T13:06:05;32.40;28.30
43009;DHT22;28634;45.454;11.106;2022-08-11T13:08:35;32.50;28.10
43009;DHT22;28634;45.454;11.106;2022-08-11T13:11:03;32.50;28.20
43009;DHT22;28634;45.454;11.106;2022-08-11T13:13:50;32.50;28.50
43009;DHT22;28634;45.454;11.106;2022-08-11T13:16:34;32.50;28.40
43009;DHT22;28634;45.454;11.106;2022-08-11T13:19:22;32.60;27.70
43009;DHT22;28634;45.454;11.106;2022-08-11T13:21:51;32.60;28.10
43009;DHT22;28634;45.454;11.106;2022-08-11T13:24:20;32.70;27.60
43009;DHT22;28634;45.454;11.106;2022-08-11T13:26:48;32.70;27.80
43009;DHT22;28634;45.454;11.106;2022-08-11T13:29:26;32.70;28.00
43009;DHT22;28634;45.454;11.106;2022-08-11T13:31:58;32.70;27.80
43009;DHT22;28634;45.454;11.106;2022-08-11T13:34:27;32.60;27.80
43009;DHT22;28634;45.454;11.106;2022-08-11T13:36:59;32.60;27.80
43009;DHT22;28634;45.454;11.106;2022-08-11T13:39:29;32.70;28.10
43009;DHT22;28634;45.454;11.106;2022-08-11T13:41:58;32.70;27.70
43009;DHT22;28634;45.454;11.106;2022-08-11T13:44:32;32.70;27.50
43009;DHT22;28634;45.454;11.106;2022-08-11T13:47:07;32.70;28.10
43009;DHT22;28634;45.454;11.106;2022-08-11T13:49:39;32.70;28.10
43009;DHT22;28634;45.454;11.106;2022-08-11T13:52:14;32.70;28.30
43009;DHT22;28634;45.454;11.106;2022-08-11T13:54:43;32.70;27.90
43009;DHT22;28634;45.454;11.106;2022-08-11T13:57:13;32.70;28.70
43009;DHT22;28634;45.454;11.106;2022-08-11T14:00:03;32.70;28.10
43009;DHT22;28634;45.454;11.106;2022-08-11T14:02:52;32.80;27.90
43009;DHT22;28634;45.454;11.106;2022-08-11T14:05:25;32.90;27.20
43009;DHT22;28634;45.454;11.106;2022-08-11T14:08:06;32.80;27.70
43009;DHT22;28634;45.454;11.106;2022-08-11T14:10:59;32.90;28.00
43009;DHT22;28634;45.454;11.106;2022-08-11T14:14:07;32.90;27.50
43009;DHT22;28634;45.454;11.106;2022-08-11T14:16:41;32.80;27.90
43009;DHT22;28634;45.454;11.106;2022-08-11T14:19:11;32.80;27.50
43009;DHT22;28634;45.454;11.106;2022-08-11T14:21:41;32.70;29.20
43009;DHT22;28634;45.454;11.106;2022-08-11T14:24:44;32.60;28.10
43009;DHT22;28634;45.454;11.106;2022-08-11T14:27:17;32.70;28.20
43009;DHT22;28634;45.454;11.106;2022-08-11T14:30:12;32.70;27.80
43009;DHT22;28634;45.454;11.106;2022-08-11T14:32:59;32.80;28.30
43009;DHT22;28634;45.454;11.106;2022-08-11T14:35:42;32.80;28.80
43009;DHT22;28634;45.454;11.106;2022-08-11T14:38:15;32.80;28.20
43009;DHT22;28634;45.454;11.106;2022-08-11T14:40:43;32.80;27.70
43009;DHT22;28634;45.454;11.106;2022-08-11T14:43:29;32.90;27.90
43009;DHT22;28634;45.454;11.106;2022-08-11T14:46:40;32.90;28.10
43009;DHT22;28634;45.454;11.106;2022-08-11T14:49:27;32.90;27.90
43009;DHT22;28634;45.454;11.106;2022-08-11T14:51:55;32.90;27.80
43009;DHT22;28634;45.454;11.106;2022-08-11T14:54:30;32.80;27.80
43009;DHT22;28634;45.454;11.106;2022-08-11T14:57:17;32.80;28.10
43009;DHT22;28634;45.454;11.106;2022-08-11T15:00:07;32.80;29.90
43009;DHT22;28634;45.454;11.106;2022-08-11T15:02:37;32.70;29.70
43009;DHT22;28634;45.454;11.106;2022-08-11T15:05:24;32.60;27.40
43009;DHT22;28634;45.454;11.106;2022-08-11T15:07:53;32.80;27.60
43009;DHT22;28634;45.454;11.106;2022-08-11T15:10:21;32.90;27.70
43009;DHT22;28634;45.454;11.106;2022-08-11T15:12:49;33.00;27.30
43009;DHT22;28634;45.454;11.106;2022-08-11T15:15:17;32.90;27.90
43009;DHT22;28634;45.454;11.106;2022-08-11T15:18:10;32.90;27.50
43009;DHT22;28634;45.454;11.106;2022-08-11T15:20:38;32.90;27.90
43009;DHT22;28634;45.454;11.106;2022-08-11T15:23:24;32.90;27.30
43009;DHT22;28634;45.454;11.106;2022-08-11T15:26:17;32.90;27.30
43009;DHT22;28634;45.454;11.106;2022-08-11T15:28:47;33.00;26.90
43009;DHT22;28634;45.454;11.106;2022-08-11T15:31:35;32.90;27.40
43009;DHT22;28634;45.454;11.106;2022-08-11T15:34:25;32.90;27.50
43009;DHT22;28634;45.454;11.106;2022-08-11T15:37:14;33.00;26.60
43009;DHT22;28634;45.454;11.106;2022-08-11T15:45:57;32.90;26.60
43009;DHT22;28634;45.454;11.106;2022-08-11T15:51:18;32.80;27.00
43009;DHT22;28634;45.454;11.106;2022-08-11T15:53:53;32.80;27.40
43009;DHT22;28634;45.454;11.106;2022-08-11T15:56:25;32.70;27.10
43009;DHT22;28634;45.454;11.106;2022-08-11T15:58:54;32.70;28.50
43009;DHT22;28634;45.454;11.106;2022-08-11T16:02:03;32.70;27.00
43009;DHT22;28634;45.454;11.106;2022-08-11T16:04:50;32.70;26.60
43009;DHT22;28634;45.454;11.106;2022-08-11T16:07:20;32.70;27.60
43009;DHT22;28634;45.454;11.106;2022-08-11T16:12:28;32.60;26.70
43009;DHT22;28634;45.454;11.106;2022-08-11T16:15:05;32.60;26.60
43009;DHT22;28634;45.454;11.106;2022-08-11T16:18:04;32.60;27.60
43009;DHT22;28634;45.454;11.106;2022-08-11T16:20:32;32.50;26.20
43009;DHT22;28634;45.454;11.106;2022-08-11T16:23:03;32.50;26.40
43009;DHT22;28634;45.454;11.106;2022-08-11T16:25:33;32.50;27.20
43009;DHT22;28634;45.454;11.106;2022-08-11T16:28:22;32.40;27.10
43009;DHT22;28634;45.454;11.106;2022-08-11T16:30:50;32.40;26.70
43009;DHT22;28634;45.454;11.106;2022-08-11T16:33:20;32.40;27.00
43009;DHT22;28634;45.454;11.106;2022-08-11T16:36:10;32.40;26.50
43009;DHT22;28634;45.454;11.106;2022-08-11T16:38:59;32.30;26.20
43009;DHT22;28634;45.454;11.106;2022-08-11T16:41:30;32.30;26.80
43009;DHT22;28634;45.454;11.106;2022-08-11T16:44:18;32.30;26.50
43009;DHT22;28634;45.454;11.106;2022-08-11T16:47:13;32.30;26.20
43009;DHT22;28634;45.454;11.106;2022-08-11T16:50:02;32.30;26.10
43009;DHT22;28634;45.454;11.106;2022-08-11T16:52:30;32.30;26.70
43009;DHT22;28634;45.454;11.106;2022-08-11T16:54:57;32.30;27.10
43009;DHT22;28634;45.454;11.106;2022-08-11T16:57:26;32.20;27.00
43009;DHT22;28634;45.454;11.106;2022-08-11T17:00:16;32.30;26.10
43009;DHT22;28634;45.454;11.106;2022-08-11T17:02:48;32.20;26.90
43009;DHT22;28634;45.454;11.106;2022-08-11T17:05:35;32.30;26.50
43009;DHT22;28634;45.454;11.106;2022-08-11T17:08:36;32.20;27.00
43009;DHT22;28634;45.454;11.106;2022-08-11T17:11:30;32.20;26.60
43009;DHT22;28634;45.454;11.106;2022-08-11T17:14:21;32.20;26.40
43009;DHT22;28634;45.454;11.106;2022-08-11T17:17:03;32.20;26.60
43009;DHT22;28634;45.454;11.106;2022-08-11T17:19:32;32.20;26.50
43009;DHT22;28634;45.454;11.106;2022-08-11T17:22:21;32.20;26.70
43009;DHT22;28634;45.454;11.106;2022-08-11T17:25:07;32.10;27.70
43009;DHT22;28634;45.454;11.106;2022-08-11T17:27:36;32.20;28.70
43009;DHT22;28634;45.454;11.106;2022-08-11T17:30:06;32.20;28.90
43009;DHT22;28634;45.454;11.106;2022-08-11T17:32:47;32.20;28.50
43009;DHT22;28634;45.454;11.106;2022-08-11T17:35:39;32.20;29.50
43009;DHT22;28634;45.454;11.106;2022-08-11T17:38:17;32.20;29.70
43009;DHT22;28634;45.454;11.106;2022-08-11T17:40:51;32.20;29.80
43009;DHT22;28634;45.454;11.106;2022-08-11T17:43:49;32.30;29.80
43009;DHT22;28634;45.454;11.106;2022-08-11T17:46:38;32.30;29.80
43009;DHT22;28634;45.454;11.106;2022-08-11T17:49:32;32.30;30.10
43009;DHT22;28634;45.454;11.106;2022-08-11T17:52:05;32.30;30.00
43009;DHT22;28634;45.454;11.106;2022-08-11T17:54:54;32.30;30.20
43009;DHT22;28634;45.454;11.106;2022-08-11T17:57:41;32.30;30.30
43009;DHT22;28634;45.454;11.106;2022-08-11T18:00:28;32.30;30.40
43009;DHT22;28634;45.454;11.106;2022-08-11T18:02:58;32.30;30.50
43009;DHT22;28634;45.454;11.106;2022-08-11T18:05:45;32.30;30.50
43009;DHT22;28634;45.454;11.106;2022-08-11T18:08:16;32.30;30.70
43009;DHT22;28634;45.454;11.106;2022-08-11T18:11:05;32.30;30.80
43009;DHT22;28634;45.454;11.106;2022-08-11T18:14:13;32.30;30.80
43009;DHT22;28634;45.454;11.106;2022-08-11T18:17:00;32.40;30.90
43009;DHT22;28634;45.454;11.106;2022-08-11T18:19:46;32.30;30.90
43009;DHT22;28634;45.454;11.106;2022-08-11T18:22:36;32.40;30.90
43009;DHT22;28634;45.454;11.106;2022-08-11T18:25:26;32.40;31.00
43009;DHT22;28634;45.454;11.106;2022-08-11T18:28:16;32.40;31.10
43009;DHT22;28634;45.454;11.106;2022-08-11T18:31:06;32.40;31.10
43009;DHT22;28634;45.454;11.106;2022-08-11T18:33:55;32.40;31.20
43009;DHT22;28634;45.454;11.106;2022-08-11T18:37:09;32.40;31.20
43009;DHT22;28634;45.454;11.106;2022-08-11T18:40:01;32.20;30.60
43009;DHT22;28634;45.454;11.106;2022-08-11T18:42:48;32.00;30.40
43009;DHT22;28634;45.454;11.106;2022-08-11T18:45:39;31.80;30.60
43009;DHT22;28634;45.454;11.106;2022-08-11T18:48:35;31.70;31.00
43009;DHT22;28634;45.454;11.106;2022-08-11T18:52:00;31.60;31.00
